Time;durP1;ratioP1;P1;durP2;ratioP2;P2;SDS_P1;SDS_P2;PMS_P1;PMS_P2;Temp;Humidity;BMP_temperature;BMP_pressure;BME280_temperature;BME280_humidity;BME280_pressure;Samples;Min_cycle;Max_cycle;Signal;HPM_P1;HPM_P2
2022/07/14 00:01:28;;;;;;;6.95;2.15;;;17.00;85.70;;;;;;5030985;28;20037;-44
2022/07/14 00:03:54;;;;;;;13.48;2.47;;;16.90;85.40;;;;;;5029003;28;20084;-43
2022/07/14 00:06:23;;;;;;;11.57;3.00;;;16.90;85.90;;;;;;5028272;28;20049;-43
2022/07/14 00:08:49;;;;;;;11.50;2.72;;;16.80;86.30;;;;;;5031324;28;20129;-42
2022/07/14 00:11:16;;;;;;;9.38;2.70;;;16.80;86.40;;;;;;5030805;28;20148;-42
2022/07/14 00:13:43;;;;;;;11.55;3.00;;;16.70;86.40;;;;;;5032577;28;20132;-42
2022/07/14 00:16:09;;;;;;;9.00;2.70;;;16.70;86.60;;;;;;5031771;28;20128;-43
2022/07/14 00:18:43;;;;;;;9.43;2.28;;;16.70;86.40;;;;;;5030816;28;20081;-43
2022/07/14 00:21:09;;;;;;;11.85;2.83;;;16.70;86.30;;;;;;5030227;28;20045;-43
2022/07/14 00:23:37;;;;;;;11.02;2.60;;;16.70;86.50;;;;;;5032954;28;20072;-43
2022/07/14 00:26:04;;;;;;;11.38;2.50;;;16.70;86.40;;;;;;5028521;28;20788;-43
2022/07/14 00:28:31;;;;;;;11.80;2.50;;;16.70;86.20;;;;;;5030648;28;20111;-43
2022/07/14 00:31:03;;;;;;;8.43;2.50;;;16.70;86.30;;;;;;5031822;28;20557;-42
2022/07/14 00:33:30;;;;;;;9.02;2.50;;;16.70;86.20;;;;;;5031344;28;20057;-43
2022/07/14 00:35:57;;;;;;;12.48;2.33;;;16.70;86.00;;;;;;5033066;28;20051;-43
2022/07/14 00:38:23;;;;;;;9.27;2.42;;;16.70;86.30;;;;;;5031994;28;20569;-43
2022/07/14 00:40:51;;;;;;;19.50;2.78;;;16.60;86.50;;;;;;5031921;28;20050;-43
2022/07/14 00:43:18;;;;;;;11.18;2.42;;;16.60;87.00;;;;;;5030895;28;20045;-43
2022/07/14 00:45:45;;;;;;;15.00;3.03;;;16.60;86.80;;;;;;5031748;28;20046;-42
2022/07/14 00:48:13;;;;;;;16.25;2.70;;;16.50;87.00;;;;;;5032986;28;20500;-43
2022/07/14 00:50:41;;;;;;;11.88;2.95;;;16.50;87.40;;;;;;5031292;28;20049;-42
2022/07/14 00:53:09;;;;;;;13.65;3.08;;;16.40;87.50;;;;;;5031885;28;20168;-43
2022/07/14 00:55:35;;;;;;;13.63;3.10;;;16.40;87.60;;;;;;5031668;28;20088;-43
2022/07/14 00:58:03;;;;;;;13.38;3.20;;;16.40;88.10;;;;;;5032168;28;20056;-44
2022/07/14 01:00:30;;;;;;;10.65;2.10;;;16.40;87.80;;;;;;5031105;28;20114;-43
2022/07/14 01:02:57;;;;;;;12.40;2.60;;;16.30;87.70;;;;;;5032516;28;20049;-43
2022/07/14 01:05:24;;;;;;;8.27;2.33;;;16.30;87.80;;;;;;5032044;28;20092;-43
2022/07/14 01:07:51;;;;;;;11.10;2.53;;;16.30;88.00;;;;;;5031502;28;20477;-42
2022/07/14 01:10:17;;;;;;;13.00;3.03;;;16.20;88.20;;;;;;5031991;28;20477;-42
2022/07/14 01:12:46;;;;;;;10.45;2.40;;;16.20;88.60;;;;;;5031265;28;20067;-42
2022/07/14 01:15:15;;;;;;;11.75;2.63;;;16.20;88.70;;;;;;5031795;28;20489;-42
2022/07/14 01:17:42;;;;;;;8.10;2.50;;;16.10;88.50;;;;;;5029983;28;20148;-41
2022/07/14 01:20:10;;;;;;;10.73;2.45;;;16.00;88.70;;;;;;5032463;28;20057;-41
2022/07/14 01:22:38;;;;;;;12.05;2.53;;;16.00;88.60;;;;;;5032293;28;20548;-42
2022/07/14 01:25:07;;;;;;;13.57;2.83;;;15.90;88.70;;;;;;5032620;28;20041;-42
2022/07/14 01:27:34;;;;;;;13.00;2.83;;;15.90;88.90;;;;;;5030990;28;20088;-42
2022/07/14 01:30:00;;;;;;;14.13;2.88;;;15.90;89.00;;;;;;5029870;28;20477;-42
2022/07/14 01:32:27;;;;;;;7.70;2.33;;;15.90;89.20;;;;;;5031552;28;20055;-42
2022/07/14 01:34:54;;;;;;;9.50;2.50;;;15.90;89.00;;;;;;5032291;28;20053;-42
2022/07/14 01:37:21;;;;;;;13.27;2.92;;;15.80;88.80;;;;;;5030742;28;20041;-43
2022/07/14 01:39:49;;;;;;;13.90;2.70;;;15.80;89.20;;;;;;5032344;28;20050;-43
2022/07/14 01:42:16;;;;;;;10.50;2.50;;;15.80;89.30;;;;;;5031213;28;20053;-42
2022/07/14 01:44:43;;;;;;;11.60;3.05;;;15.80;89.40;;;;;;5032204;28;20091;-42
2022/07/14 01:47:10;;;;;;;10.10;2.67;;;15.80;89.70;;;;;;5030765;28;20045;-43
2022/07/14 01:49:36;;;;;;;9.55;2.58;;;15.70;89.80;;;;;;5032239;28;20124;-43
2022/07/14 01:52:03;;;;;;;11.85;2.63;;;15.70;90.00;;;;;;5031196;28;20580;-43
2022/07/14 01:54:30;;;;;;;7.38;2.05;;;15.70;90.00;;;;;;5030871;28;20061;-43
2022/07/14 01:56:59;;;;;;;10.65;3.20;;;15.70;89.80;;;;;;5029468;28;20448;-42
2022/07/14 01:59:26;;;;;;;14.20;3.10;;;15.70;90.00;;;;;;5030658;28;20382;-42
2022/07/14 02:01:52;;;;;;;12.15;3.03;;;15.70;90.10;;;;;;5030161;28;20133;-42
2022/07/14 02:04:20;;;;;;;8.57;2.60;;;15.60;90.00;;;;;;5030420;28;21058;-42
2022/07/14 02:06:49;;;;;;;13.02;3.15;;;15.60;90.00;;;;;;5028012;28;20045;-42
2022/07/14 02:09:16;;;;;;;9.20;2.10;;;15.50;90.10;;;;;;5031455;28;20045;-42
2022/07/14 02:14:28;;;;;;;6.80;2.13;;;15.50;90.40;;;;;;5030337;28;20481;-42
2022/07/14 02:16:55;;;;;;;7.22;2.58;;;15.40;90.50;;;;;;5034150;28;20049;-42
2022/07/14 02:19:23;;;;;;;11.27;2.65;;;15.40;90.50;;;;;;5034494;28;20057;-42
2022/07/14 02:21:51;;;;;;;6.78;2.28;;;15.40;90.50;;;;;;5034350;28;20056;-42
2022/07/14 02:24:18;;;;;;;12.18;2.22;;;15.30;90.50;;;;;;5034408;28;20057;-42
2022/07/14 02:26:45;;;;;;;7.82;2.55;;;15.30;90.60;;;;;;5032874;28;20140;-42
2022/07/14 02:29:11;;;;;;;6.68;2.15;;;15.30;90.50;;;;;;5029386;28;20140;-42
2022/07/14 02:31:39;;;;;;;10.07;2.35;;;15.30;90.60;;;;;;5033511;28;20060;-42
2022/07/14 02:34:06;;;;;;;9.27;2.40;;;15.20;90.60;;;;;;5033923;28;20089;-42
2022/07/14 02:36:33;;;;;;;8.15;2.65;;;15.20;90.70;;;;;;5032971;28;20120;-42
2022/07/14 02:39:00;;;;;;;9.63;2.55;;;15.20;91.10;;;;;;5035090;28;20597;-43
2022/07/14 02:41:27;;;;;;;9.88;2.20;;;15.10;91.20;;;;;;5034297;28;20042;-42
2022/07/14 02:43:54;;;;;;;9.95;2.55;;;15.10;91.40;;;;;;5031834;28;20057;-42
2022/07/14 02:46:20;;;;;;;5.95;2.25;;;15.00;91.30;;;;;;5032925;28;20133;-42
2022/07/14 02:48:49;;;;;;;9.27;2.33;;;15.00;91.40;;;;;;5033437;28;20053;-42
2022/07/14 02:51:16;;;;;;;6.93;2.25;;;15.00;91.60;;;;;;5034228;28;20489;-42
2022/07/14 02:53:43;;;;;;;8.43;2.85;;;14.90;91.70;;;;;;5032039;28;20049;-43
2022/07/14 02:56:10;;;;;;;9.75;2.38;;;14.90;92.00;;;;;;5032578;28;20474;-42
2022/07/14 02:58:37;;;;;;;9.35;2.40;;;14.80;92.10;;;;;;5032910;28;20060;-42
2022/07/14 03:01:05;;;;;;;10.32;2.53;;;14.70;92.10;;;;;;5032117;28;20053;-42
2022/07/14 03:03:32;;;;;;;9.10;2.70;;;14.70;92.30;;;;;;5032685;28;20052;-42
2022/07/14 03:06:00;;;;;;;8.80;2.67;;;14.60;92.50;;;;;;5030980;28;20517;-43
2022/07/14 03:08:27;;;;;;;7.18;2.30;;;14.60;92.30;;;;;;5021722;28;20146;-42
2022/07/14 03:10:54;;;;;;;7.38;2.75;;;14.50;92.30;;;;;;5033779;28;20511;-41
2022/07/14 03:13:20;;;;;;;12.45;3.20;;;14.50;92.20;;;;;;5033104;28;20450;-42
2022/07/14 03:15:47;;;;;;;7.22;2.33;;;14.50;92.40;;;;;;5033288;28;20052;-42
2022/07/14 03:18:14;;;;;;;10.35;2.78;;;14.50;92.30;;;;;;5033550;28;20071;-42
2022/07/14 03:20:41;;;;;;;10.45;2.67;;;14.50;92.50;;;;;;5023823;28;20132;-42
2022/07/14 03:23:09;;;;;;;7.88;2.65;;;14.50;92.50;;;;;;5033036;28;20128;-42
2022/07/14 03:25:36;;;;;;;12.80;2.72;;;14.40;92.30;;;;;;5031090;28;20081;-43
2022/07/14 03:28:03;;;;;;;7.53;2.55;;;14.40;92.30;;;;;;5033252;28;20083;-42
2022/07/14 03:30:29;;;;;;;10.52;2.38;;;14.40;92.60;;;;;;5033716;28;20405;-43
2022/07/14 03:32:56;;;;;;;7.75;2.33;;;14.40;92.60;;;;;;5034359;28;20554;-42
2022/07/14 03:35:23;;;;;;;9.95;3.30;;;14.40;92.50;;;;;;5032593;28;20136;-43
2022/07/14 03:37:50;;;;;;;5.45;2.10;;;14.40;92.70;;;;;;5033322;28;20095;-43
2022/07/14 03:40:18;;;;;;;7.60;2.58;;;14.40;92.80;;;;;;5034052;28;20144;-43
2022/07/14 03:42:45;;;;;;;13.18;3.50;;;14.30;92.90;;;;;;5033993;28;20152;-43
2022/07/14 03:45:12;;;;;;;8.52;2.83;;;14.30;93.30;;;;;;5032116;28;20053;-43
2022/07/14 03:47:38;;;;;;;8.70;2.30;;;14.30;93.40;;;;;;5033188;28;20053;-43
2022/07/14 03:50:06;;;;;;;13.15;3.15;;;14.30;93.30;;;;;;5032133;28;20087;-43
2022/07/14 03:52:33;;;;;;;11.85;2.92;;;14.30;93.30;;;;;;5032331;28;20132;-43
2022/07/14 03:54:59;;;;;;;15.15;3.38;;;14.20;93.20;;;;;;5032945;28;20081;-43
2022/07/14 03:57:28;;;;;;;7.28;2.30;;;14.20;93.30;;;;;;5028340;28;20458;-42
2022/07/14 03:59:54;;;;;;;7.47;2.40;;;14.30;93.40;;;;;;5026961;28;20059;-43
2022/07/14 04:02:21;;;;;;;6.90;2.65;;;14.20;93.50;;;;;;5029684;28;20085;-42
2022/07/14 04:04:48;;;;;;;10.63;3.10;;;14.20;93.50;;;;;;5032780;28;20080;-43
2022/07/14 04:07:15;;;;;;;10.82;3.13;;;14.20;93.60;;;;;;5032809;28;20089;-42
2022/07/14 04:09:41;;;;;;;6.72;2.90;;;14.20;94.00;;;;;;5031930;28;20081;-42
2022/07/14 04:12:08;;;;;;;7.68;2.60;;;14.20;94.00;;;;;;5030341;28;20443;-42
2022/07/14 04:14:36;;;;;;;9.73;2.97;;;14.20;93.90;;;;;;5032315;28;20057;-42
2022/07/14 04:17:03;;;;;;;7.45;3.13;;;14.20;94.00;;;;;;5032276;28;20111;-42
2022/07/14 04:19:30;;;;;;;8.05;2.75;;;14.20;94.20;;;;;;5032435;28;20052;-42
2022/07/14 04:21:57;;;;;;;9.25;2.53;;;14.10;94.20;;;;;;5032371;28;20413;-42
2022/07/14 04:24:23;;;;;;;8.65;2.92;;;14.20;94.20;;;;;;5030577;28;20460;-42
2022/07/14 04:26:50;;;;;;;10.95;3.13;;;14.10;94.20;;;;;;5032601;28;20108;-42
2022/07/14 04:29:17;;;;;;;5.57;2.42;;;14.20;94.20;;;;;;5031305;28;20049;-43
2022/07/14 04:31:45;;;;;;;9.75;3.05;;;14.20;94.10;;;;;;5033455;28;20053;-43
2022/07/14 04:34:12;;;;;;;6.28;2.50;;;14.20;94.20;;;;;;5032534;28;20132;-42
2022/07/14 04:36:38;;;;;;;6.75;2.30;;;14.20;94.30;;;;;;5032036;28;20485;-43
2022/07/14 04:39:06;;;;;;;13.55;3.28;;;14.20;94.00;;;;;;5030204;28;20059;-43
2022/07/14 04:41:34;;;;;;;12.15;3.10;;;14.20;94.40;;;;;;5032081;28;20052;-43
2022/07/14 04:44:01;;;;;;;5.50;2.42;;;14.20;94.60;;;;;;5029897;28;20099;-43
2022/07/14 04:46:27;;;;;;;12.60;3.58;;;14.20;94.80;;;;;;5051842;28;20089;-42
2022/07/14 04:54:24;;;;;;;14.27;4.32;;;14.20;95.20;;;;;;5031131;28;20054;-42
2022/07/14 04:56:51;;;;;;;11.85;3.50;;;14.20;95.60;;;;;;5032590;28;20085;-43
2022/07/14 04:59:18;;;;;;;10.95;3.10;;;14.20;96.00;;;;;;5032079;28;20049;-42
2022/07/14 05:01:44;;;;;;;6.43;3.00;;;14.20;96.00;;;;;;5029052;28;20049;-43
2022/07/14 05:04:12;;;;;;;7.07;2.50;;;14.20;96.00;;;;;;5029850;28;20106;-43
2022/07/14 05:06:39;;;;;;;14.05;3.40;;;14.20;96.00;;;;;;5029619;28;20128;-42
2022/07/14 05:09:06;;;;;;;12.40;3.58;;;14.20;96.10;;;;;;5031254;28;20140;-42
2022/07/14 05:11:32;;;;;;;7.28;2.58;;;14.30;96.10;;;;;;5030288;28;20085;-43
2022/07/14 05:13:59;;;;;;;9.27;2.95;;;14.30;96.20;;;;;;5032272;28;20128;-43
2022/07/14 05:16:26;;;;;;;7.80;2.70;;;14.30;96.30;;;;;;5018161;28;20072;-43
2022/07/14 05:18:53;;;;;;;14.40;3.50;;;14.30;96.20;;;;;;5029401;28;20517;-42
2022/07/14 05:21:21;;;;;;;8.02;3.33;;;14.30;96.50;;;;;;5030886;28;20046;-43
2022/07/14 05:23:48;;;;;;;11.02;3.40;;;14.30;96.60;;;;;;5030368;28;20045;-43
2022/07/14 05:26:14;;;;;;;6.40;2.95;;;14.30;96.90;;;;;;5030421;28;20088;-43
2022/07/14 05:28:41;;;;;;;12.70;3.90;;;14.40;97.50;;;;;;5032179;28;20069;-43
2022/07/14 05:31:08;;;;;;;14.38;3.67;;;14.40;97.40;;;;;;5029854;28;20045;-43
2022/07/14 05:33:35;;;;;;;12.73;4.15;;;14.50;97.70;;;;;;5028223;28;20057;-43
2022/07/14 05:36:02;;;;;;;9.70;3.38;;;14.60;97.90;;;;;;5031856;28;20136;-43
2022/07/14 05:38:31;;;;;;;10.07;3.17;;;14.70;97.80;;;;;;5030157;28;20140;-43
2022/07/14 05:40:58;;;;;;;15.23;3.15;;;14.70;97.80;;;;;;5030661;28;20052;-43
2022/07/14 05:43:25;;;;;;;10.23;2.83;;;14.90;97.80;;;;;;5031481;28;20104;-43
2022/07/14 05:45:51;;;;;;;10.57;2.83;;;15.00;97.60;;;;;;5030559;28;20144;-43
2022/07/14 05:48:18;;;;;;;9.10;2.45;;;15.10;97.70;;;;;;5031232;28;20055;-43
2022/07/14 05:50:45;;;;;;;13.77;3.40;;;15.20;97.70;;;;;;5033157;28;20083;-43
2022/07/14 05:53:12;;;;;;;11.45;2.63;;;15.40;97.80;;;;;;5032545;28;20215;-42
2022/07/14 05:55:40;;;;;;;10.50;3.00;;;15.50;97.70;;;;;;5036152;28;20049;-44
2022/07/14 05:58:06;;;;;;;9.23;2.55;;;15.60;97.80;;;;;;5034978;28;20064;-43
2022/07/14 06:00:33;;;;;;;7.65;2.17;;;15.70;97.70;;;;;;5036223;28;20132;-43
2022/07/14 06:03:00;;;;;;;9.80;2.78;;;15.80;97.50;;;;;;5035920;28;20081;-43
2022/07/14 06:05:27;;;;;;;12.23;2.20;;;15.90;97.40;;;;;;5016584;28;20140;-43
2022/07/14 06:07:53;;;;;;;11.27;2.50;;;16.10;97.40;;;;;;5032460;28;20048;-43
2022/07/14 06:10:20;;;;;;;8.43;2.42;;;16.10;97.40;;;;;;5035470;28;20048;-42
2022/07/14 06:12:48;;;;;;;12.50;2.40;;;16.20;97.40;;;;;;5035922;28;20053;-43
2022/07/14 06:15:15;;;;;;;12.48;3.17;;;16.30;97.30;;;;;;5034934;28;20139;-43
2022/07/14 06:17:42;;;;;;;12.55;2.00;;;16.50;97.20;;;;;;5034984;28;20053;-42
2022/07/14 06:20:10;;;;;;;11.75;2.50;;;16.70;97.00;;;;;;5033934;28;20049;-42
2022/07/14 06:22:37;;;;;;;9.25;2.00;;;16.80;97.00;;;;;;5034737;28;20053;-43
2022/07/14 06:25:05;;;;;;;12.25;1.85;;;16.90;96.70;;;;;;5034903;28;20099;-43
2022/07/14 06:27:31;;;;;;;10.75;1.80;;;17.10;96.50;;;;;;5034247;28;20124;-43
2022/07/14 06:30:04;;;;;;;10.32;1.80;;;17.20;96.20;;;;;;5032615;28;20057;-42
2022/07/14 06:32:30;;;;;;;10.55;1.73;;;17.40;95.80;;;;;;5034833;28;20129;-42
2022/07/14 06:34:57;;;;;;;7.20;1.73;;;17.50;95.60;;;;;;5035291;28;20088;-44
2022/07/14 06:37:24;;;;;;;10.85;2.20;;;17.60;95.40;;;;;;5035309;28;20061;-43
2022/07/14 06:39:51;;;;;;;8.25;1.92;;;17.70;95.20;;;;;;5035497;28;20092;-44
2022/07/14 06:42:18;;;;;;;7.22;1.73;;;17.90;94.90;;;;;;5029172;28;20061;-44
2022/07/14 06:44:44;;;;;;;7.18;1.70;;;18.00;94.80;;;;;;5028779;28;20361;-43
2022/07/14 06:47:12;;;;;;;10.25;1.52;;;18.10;94.40;;;;;;5030100;28;20405;-44
2022/07/14 06:49:39;;;;;;;8.70;1.75;;;18.30;94.00;;;;;;5026439;28;20465;-44
2022/07/14 06:52:07;;;;;;;11.25;1.83;;;18.40;93.70;;;;;;5031273;28;20138;-43
2022/07/14 06:54:34;;;;;;;6.25;1.15;;;18.50;93.50;;;;;;5034257;28;20081;-44
2022/07/14 06:57:01;;;;;;;9.80;1.40;;;18.60;93.20;;;;;;5029366;28;20050;-43
2022/07/14 06:59:28;;;;;;;7.97;1.67;;;18.70;92.70;;;;;;5026090;28;20088;-43
2022/07/14 07:01:54;;;;;;;9.45;1.67;;;18.80;92.70;;;;;;5032537;28;20111;-44
2022/07/14 07:04:24;;;;;;;8.60;1.60;;;18.90;92.60;;;;;;5032433;28;20124;-42
2022/07/14 07:06:50;;;;;;;6.80;1.50;;;19.10;92.70;;;;;;5031261;28;20377;-43
2022/07/14 07:09:18;;;;;;;7.05;1.13;;;19.20;92.10;;;;;;5029063;28;20404;-44
2022/07/14 07:11:45;;;;;;;15.73;1.58;;;19.30;92.00;;;;;;5032018;28;20117;-44
2022/07/14 07:14:12;;;;;;;8.98;1.30;;;19.50;91.80;;;;;;5029321;28;20141;-43
2022/07/14 07:16:38;;;;;;;9.05;1.30;;;19.70;91.40;;;;;;5032072;28;20055;-43
2022/07/14 07:19:05;;;;;;;9.38;1.50;;;19.80;90.90;;;;;;5034490;28;20112;-44
2022/07/14 07:21:33;;;;;;;6.93;1.50;;;19.90;90.80;;;;;;5033895;28;20135;-44
2022/07/14 07:24:00;;;;;;;8.25;1.73;;;20.20;90.50;;;;;;5034724;28;20133;-43
2022/07/14 07:26:30;;;;;;;8.32;1.50;;;20.40;90.20;;;;;;5033899;28;20049;-43
2022/07/14 07:28:57;;;;;;;8.10;1.20;;;20.50;89.90;;;;;;5032240;28;20532;-42
2022/07/14 07:31:23;;;;;;;8.75;1.55;;;20.60;89.60;;;;;;5033732;28;20146;-43
2022/07/14 07:33:50;;;;;;;6.82;1.25;;;20.80;88.60;;;;;;5033656;28;20057;-44
2022/07/14 07:36:18;;;;;;;5.50;1.13;;;20.80;88.70;;;;;;5029932;28;20386;-44
2022/07/14 07:38:46;;;;;;;4.88;1.02;;;20.90;88.20;;;;;;5033289;28;20085;-43
2022/07/14 07:41:13;;;;;;;7.13;1.25;;;20.90;87.50;;;;;;5033646;28;20128;-44
2022/07/14 07:43:39;;;;;;;7.30;1.08;;;20.90;87.20;;;;;;5030799;28;20136;-44
2022/07/14 07:46:07;;;;;;;6.18;1.15;;;20.90;86.80;;;;;;5033890;28;20115;-43
2022/07/14 07:48:34;;;;;;;6.22;1.10;;;20.90;87.30;;;;;;5032853;28;20135;-42
2022/07/14 07:51:01;;;;;;;5.97;0.90;;;20.90;87.00;;;;;;5033908;28;20449;-43
2022/07/14 07:53:27;;;;;;;6.00;1.10;;;21.00;86.50;;;;;;5031235;28;20076;-43
2022/07/14 07:55:55;;;;;;;5.88;1.00;;;21.00;86.20;;;;;;5033558;28;20077;-42
2022/07/14 07:58:22;;;;;;;5.13;1.27;;;21.20;86.40;;;;;;5034146;28;20053;-42
2022/07/14 08:00:49;;;;;;;5.90;1.20;;;21.40;85.30;;;;;;5032033;28;20061;-43
2022/07/14 08:03:16;;;;;;;6.22;1.35;;;21.60;83.80;;;;;;5033043;28;20108;-43
2022/07/14 08:05:43;;;;;;;5.35;1.48;;;21.70;83.60;;;;;;5032111;28;20146;-43
2022/07/14 08:08:09;;;;;;;8.73;1.25;;;21.90;83.00;;;;;;5033067;28;20045;-44
2022/07/14 08:10:36;;;;;;;6.32;1.00;;;22.10;82.40;;;;;;5032773;28;20100;-44
2022/07/14 08:13:04;;;;;;;7.85;1.13;;;22.20;81.30;;;;;;5032952;28;20046;-43
2022/07/14 08:15:31;;;;;;;7.60;1.48;;;22.20;80.60;;;;;;5032937;28;20077;-43
2022/07/14 08:17:59;;;;;;;7.35;0.82;;;22.20;81.40;;;;;;5033567;28;20119;-43
2022/07/14 08:20:26;;;;;;;3.08;0.80;;;22.40;79.30;;;;;;5031499;28;20076;-44
2022/07/14 08:22:52;;;;;;;7.00;1.02;;;22.40;78.00;;;;;;5032858;28;20053;-44
2022/07/14 08:25:19;;;;;;;6.55;1.00;;;22.50;77.00;;;;;;5031652;28;20052;-43
2022/07/14 08:27:46;;;;;;;3.40;0.80;;;22.50;77.20;;;;;;5033435;28;20136;-42
2022/07/14 08:30:14;;;;;;;6.25;1.20;;;22.60;77.30;;;;;;5033376;28;20168;-43
2022/07/14 08:32:42;;;;;;;4.03;1.10;;;22.70;75.50;;;;;;5032491;28;20115;-43
2022/07/14 08:35:11;;;;;;;5.25;1.02;;;22.70;75.60;;;;;;5032155;28;20144;-43
2022/07/14 08:37:38;;;;;;;3.72;1.33;;;22.80;76.10;;;;;;5033455;28;20053;-43
2022/07/14 08:40:06;;;;;;;4.05;1.00;;;23.00;76.20;;;;;;5032532;28;20124;-43
2022/07/14 08:42:33;;;;;;;4.53;0.82;;;23.10;74.90;;;;;;5032850;28;20501;-43
2022/07/14 08:45:00;;;;;;;3.67;0.80;;;23.30;75.60;;;;;;5032891;28;20591;-43
2022/07/14 08:47:28;;;;;;;3.67;0.60;;;23.50;74.00;;;;;;5032036;28;20054;-43
2022/07/14 08:49:55;;;;;;;3.63;1.00;;;23.80;71.90;;;;;;5032883;28;20132;-43
2022/07/14 08:52:23;;;;;;;3.28;0.90;;;24.00;71.30;;;;;;5033100;28;20111;-44
2022/07/14 08:54:49;;;;;;;6.40;0.90;;;24.30;71.30;;;;;;5032215;28;20132;-43
2022/07/14 08:57:16;;;;;;;4.60;0.80;;;24.50;69.90;;;;;;5031858;28;20536;-43
2022/07/14 08:59:43;;;;;;;6.57;1.10;;;24.40;69.30;;;;;;5031477;28;20076;-44
2022/07/14 09:02:10;;;;;;;4.60;1.00;;;24.30;70.50;;;;;;5030449;28;20140;-43
2022/07/14 09:04:38;;;;;;;2.72;0.80;;;24.30;70.70;;;;;;5032552;28;20825;-44
2022/07/14 09:07:05;;;;;;;5.45;1.15;;;24.20;71.40;;;;;;5032721;28;20516;-44
2022/07/14 09:09:34;;;;;;;3.72;0.85;;;24.20;70.70;;;;;;5030206;28;20585;-43
2022/07/14 09:12:04;;;;;;;5.82;0.77;;;24.30;71.30;;;;;;5032836;28;20133;-43
2022/07/14 09:15:44;;;;;;;3.72;0.77;;;24.30;70.80;;;;;;5032699;28;20052;-44
2022/07/14 09:17:21;;;;;;;7.80;0.93;;;24.50;70.40;;;;;;5032020;28;20410;-44
2022/07/14 09:20:06;;;;;;;4.25;0.80;;;24.60;69.80;;;;;;5032813;28;20132;-44
2022/07/14 09:22:33;;;;;;;2.65;0.60;;;24.80;66.00;;;;;;5032600;28;20494;-44
2022/07/14 09:25:00;;;;;;;3.40;0.60;;;24.70;68.20;;;;;;5035115;28;20056;-43
2022/07/14 09:27:26;;;;;;;2.95;0.60;;;24.70;67.50;;;;;;5035023;28;20132;-44
2022/07/14 09:29:54;;;;;;;6.28;1.08;;;24.80;67.60;;;;;;5036169;28;20068;-43
2022/07/14 09:32:37;;;;;;;2.25;0.70;;;24.90;68.40;;;;;;5035935;28;20068;-43
2022/07/14 09:35:06;;;;;;;3.17;0.52;;;25.00;67.00;;;;;;5035377;28;20092;-44
2022/07/14 09:37:33;;;;;;;5.28;0.80;;;25.00;66.50;;;;;;5035668;28;20053;-42
2022/07/14 09:40:00;;;;;;;4.57;0.85;;;25.00;65.70;;;;;;5036432;28;20505;-43
2022/07/14 09:42:47;;;;;;;7.32;0.82;;;25.00;65.60;;;;;;5033840;28;20081;-44
2022/07/14 09:45:15;;;;;;;3.50;0.65;;;24.90;67.00;;;;;;5031381;28;20088;-43
2022/07/14 09:47:52;;;;;;;3.60;0.90;;;24.90;66.40;;;;;;5035759;28;20096;-43
2022/07/14 09:50:42;;;;;;;1.95;0.50;;;24.90;66.50;;;;;;5036499;28;20116;-43
2022/07/14 09:53:31;;;;;;;2.40;0.75;;;24.90;67.10;;;;;;5034601;28;20132;-43
2022/07/14 09:55:59;;;;;;;3.65;0.65;;;25.00;67.40;;;;;;5029266;28;20486;-43
2022/07/14 09:58:27;;;;;;;4.15;1.13;;;24.90;66.80;;;;;;5035213;28;20088;-44
2022/07/14 10:00:58;;;;;;;7.40;0.88;;;24.90;67.00;;;;;;5036207;28;20108;-43
2022/07/14 10:03:27;;;;;;;4.05;0.77;;;25.00;67.20;;;;;;5034104;28;20053;-43
2022/07/14 10:05:55;;;;;;;5.10;0.85;;;25.00;66.60;;;;;;5035418;28;20077;-43
2022/07/14 10:08:24;;;;;;;3.58;0.88;;;24.90;66.40;;;;;;5016407;28;20076;-43
2022/07/14 10:10:51;;;;;;;4.07;0.70;;;24.90;66.00;;;;;;5018060;28;20104;-43
2022/07/14 10:13:18;;;;;;;2.97;0.68;;;24.90;66.80;;;;;;5034319;28;20113;-43
2022/07/14 10:15:44;;;;;;;2.78;0.80;;;24.90;66.10;;;;;;5034235;28;20084;-42
2022/07/14 10:18:11;;;;;;;5.32;0.88;;;24.90;66.20;;;;;;5035075;28;20537;-43
2022/07/14 10:20:38;;;;;;;3.20;1.05;;;24.90;65.50;;;;;;5036032;28;20102;-42
2022/07/14 10:23:06;;;;;;;3.80;0.77;;;24.80;66.20;;;;;;5035903;28;20053;-43
2022/07/14 10:25:33;;;;;;;2.15;0.60;;;24.90;66.00;;;;;;5035719;28;20089;-42
2022/07/14 10:28:00;;;;;;;3.45;0.70;;;24.90;66.20;;;;;;5034596;28;20128;-42
2022/07/14 10:30:36;;;;;;;3.75;0.45;;;24.90;65.90;;;;;;5032358;28;20107;-43
2022/07/14 10:33:05;;;;;;;4.55;0.80;;;24.90;66.30;;;;;;5034786;28;20147;-43
2022/07/14 10:35:48;;;;;;;2.47;0.77;;;25.00;66.00;;;;;;5033715;28;20084;-43
2022/07/14 10:38:31;;;;;;;3.50;0.75;;;25.10;66.60;;;;;;5035666;28;20132;-44
2022/07/14 10:41:08;;;;;;;5.35;0.80;;;25.20;66.10;;;;;;5034227;28;20056;-43
2022/07/14 10:43:54;;;;;;;3.58;0.52;;;25.20;65.20;;;;;;5033418;28;20049;-43
2022/07/14 10:46:39;;;;;;;2.53;0.70;;;25.20;65.00;;;;;;5034036;28;20077;-43
2022/07/14 10:49:07;;;;;;;2.80;0.60;;;25.20;65.20;;;;;;5033844;28;20155;-43
2022/07/14 10:51:34;;;;;;;3.50;0.70;;;25.10;64.90;;;;;;5033100;28;20060;-43
2022/07/14 10:54:08;;;;;;;2.38;0.57;;;25.10;65.10;;;;;;5035344;28;20080;-43
2022/07/14 10:56:35;;;;;;;2.35;0.60;;;25.20;64.70;;;;;;5035244;28;20071;-43
2022/07/14 10:59:35;;;;;;;3.58;0.73;;;25.20;64.90;;;;;;5034454;28;20064;-43
2022/07/14 11:02:27;;;;;;;3.63;0.47;;;25.30;64.30;;;;;;5023030;28;20060;-42
2022/07/14 11:05:10;;;;;;;2.30;0.80;;;25.20;63.60;;;;;;5034046;28;20092;-42
2022/07/14 11:07:38;;;;;;;4.22;0.60;;;25.20;64.30;;;;;;5032177;28;20068;-42
2022/07/14 11:10:24;;;;;;;3.67;0.70;;;25.20;64.10;;;;;;5015126;28;20053;-42
2022/07/14 11:13:09;;;;;;;3.50;0.73;;;25.20;64.20;;;;;;4989709;28;20057;-42
2022/07/14 11:15:39;;;;;;;2.97;0.60;;;25.10;65.00;;;;;;5015084;28;20410;-43
2022/07/14 11:18:37;;;;;;;3.50;0.60;;;25.00;64.70;;;;;;5014955;28;20094;-43
2022/07/14 11:21:06;;;;;;;6.50;0.70;;;25.00;64.30;;;;;;4954567;29;20051;-43
2022/07/14 11:23:34;;;;;;;6.43;0.75;;;24.90;63.90;;;;;;5017417;28;20505;-43
2022/07/14 11:26:04;;;;;;;2.40;0.63;;;24.80;64.70;;;;;;5034702;28;20085;-42
2022/07/14 11:28:44;;;;;;;8.90;1.00;;;24.70;66.20;;;;;;5034006;28;20049;-42
2022/07/14 11:31:12;;;;;;;3.58;0.73;;;24.60;65.60;;;;;;5031839;28;20085;-43
2022/07/14 11:36:17;;;;;;;2.97;0.52;;;24.70;65.10;;;;;;5033123;28;20131;-43
2022/07/14 11:36:28;;;;;;;3.65;0.60;;;24.70;64.60;;;;;;5031164;28;20057;-43
2022/07/14 11:39:22;;;;;;;37.15;2.60;;;24.60;64.70;;;;;;5033361;28;20057;-43
2022/07/14 11:41:52;;;;;;;7.50;0.90;;;24.60;65.80;;;;;;5033300;28;20049;-43
2022/07/14 11:44:44;;;;;;;4.55;0.88;;;24.50;64.70;;;;;;5031282;28;20069;-43
2022/07/14 11:47:15;;;;;;;4.85;0.80;;;24.60;65.20;;;;;;5025034;28;20049;-43
2022/07/14 11:49:42;;;;;;;6.00;0.82;;;24.60;65.00;;;;;;5033065;28;20061;-43
2022/07/14 11:52:09;;;;;;;8.38;0.95;;;24.60;64.80;;;;;;5032669;28;20057;-43
2022/07/14 11:54:36;;;;;;;10.93;1.15;;;24.70;64.70;;;;;;5032814;28;20053;-43
2022/07/14 11:57:06;;;;;;;6.72;1.05;;;24.70;64.50;;;;;;5031594;28;20057;-43
2022/07/14 11:59:33;;;;;;;3.47;0.80;;;24.70;64.20;;;;;;5033068;28;20132;-42
2022/07/14 12:02:06;;;;;;;4.28;0.85;;;24.70;64.40;;;;;;5031038;28;20049;-43
2022/07/14 12:04:33;;;;;;;5.13;0.90;;;24.80;64.70;;;;;;5031737;28;20041;-43
2022/07/14 12:06:59;;;;;;;6.82;1.00;;;24.90;64.10;;;;;;5030394;28;20558;-43
2022/07/14 12:09:30;;;;;;;3.25;0.95;;;25.20;64.50;;;;;;5031273;28;20140;-43
2022/07/14 12:11:57;;;;;;;3.47;0.73;;;25.50;64.60;;;;;;5032857;28;20539;-41
2022/07/14 12:14:25;;;;;;;2.72;0.80;;;25.60;63.50;;;;;;5026199;28;20050;-43
2022/07/14 12:16:52;;;;;;;2.88;0.65;;;25.60;63.90;;;;;;5013806;28;20053;-43
2022/07/14 12:19:27;;;;;;;6.50;0.90;;;25.70;63.80;;;;;;5026922;28;20045;-43
2022/07/14 12:21:58;;;;;;;7.82;0.98;;;25.90;63.00;;;;;;5033495;28;20087;-43
2022/07/14 12:24:26;;;;;;;6.75;1.17;;;25.80;63.10;;;;;;5033659;28;20138;-43
2022/07/14 12:26:52;;;;;;;2.85;0.90;;;25.80;63.40;;;;;;5032241;28;20095;-43
2022/07/14 12:29:19;;;;;;;5.70;1.10;;;25.80;63.10;;;;;;5033527;28;20462;-43
2022/07/14 12:31:47;;;;;;;2.70;0.70;;;25.70;62.70;;;;;;5028555;28;20554;-43
2022/07/14 12:34:15;;;;;;;4.47;0.88;;;25.70;63.10;;;;;;5031689;28;20058;-43
2022/07/14 12:36:42;;;;;;;4.07;0.63;;;25.70;63.40;;;;;;5033180;28;20148;-43
2022/07/14 12:39:08;;;;;;;6.20;0.88;;;25.60;63.50;;;;;;5032461;28;20053;-43
2022/07/14 12:41:35;;;;;;;3.78;0.65;;;25.60;63.40;;;;;;5031765;28;20049;-43
2022/07/14 12:44:04;;;;;;;3.03;0.85;;;25.60;63.90;;;;;;5032618;28;20058;-43
2022/07/14 12:46:31;;;;;;;2.63;0.73;;;25.60;63.50;;;;;;5032042;28;20080;-43
2022/07/14 12:49:03;;;;;;;3.58;0.80;;;25.50;63.40;;;;;;5032147;28;20099;-43
2022/07/14 12:51:31;;;;;;;4.90;1.08;;;25.50;63.40;;;;;;5031787;28;20464;-43
2022/07/14 12:53:59;;;;;;;5.88;0.93;;;25.40;62.90;;;;;;5032347;28;20125;-43
2022/07/14 12:56:26;;;;;;;2.53;0.88;;;25.30;62.40;;;;;;5033013;28;20057;-43
2022/07/14 12:58:53;;;;;;;4.95;0.80;;;25.30;62.40;;;;;;5031523;28;20141;-42